sensor_id;sensor_type;location;lat;lon;timestamp;P1;durP1;ratioP1;P2;durP2;ratioP2
23539;SDS011;11947;50.810;4.394;2023-04-25T00:02:02;16.52;;;4.32;;
23539;SDS011;11947;50.810;4.394;2023-04-25T00:04:28;20.60;;;4.72;;
23539;SDS011;11947;50.810;4.394;2023-04-25T00:06:54;17.20;;;4.60;;
23539;SDS011;11947;50.810;4.394;2023-04-25T00:09:20;20.15;;;4.65;;
23539;SDS011;11947;50.810;4.394;2023-04-25T00:11:47;16.25;;;4.40;;
23539;SDS011;11947;50.810;4.394;2023-04-25T00:14:13;17.98;;;3.92;;
23539;SDS011;11947;50.810;4.394;2023-04-25T00:16:39;23.80;;;4.50;;
23539;SDS011;11947;50.810;4.394;2023-04-25T00:19:06;16.90;;;4.50;;
23539;SDS011;11947;50.810;4.394;2023-04-25T00:21:32;18.02;;;4.60;;
23539;SDS011;11947;50.810;4.394;2023-04-25T00:23:58;19.10;;;4.72;;
23539;SDS011;11947;50.810;4.394;2023-04-25T00:26:24;17.27;;;3.72;;
23539;SDS011;11947;50.810;4.394;2023-04-25T00:28:50;19.45;;;4.78;;
23539;SDS011;11947;50.810;4.394;2023-04-25T00:31:16;17.63;;;4.40;;
23539;SDS011;11947;50.810;4.394;2023-04-25T00:33:42;19.27;;;4.30;;
23539;SDS011;11947;50.810;4.394;2023-04-25T00:36:07;16.55;;;4.82;;
23539;SDS011;11947;50.810;4.394;2023-04-25T00:38:33;17.23;;;4.80;;
23539;SDS011;11947;50.810;4.394;2023-04-25T00:40:59;20.88;;;4.72;;
23539;SDS011;11947;50.810;4.394;2023-04-25T00:43:26;18.65;;;4.75;;
23539;SDS011;11947;50.810;4.394;2023-04-25T00:45:52;14.38;;;4.13;;
23539;SDS011;11947;50.810;4.394;2023-04-25T00:48:19;18.83;;;4.65;;
23539;SDS011;11947;50.810;4.394;2023-04-25T00:50:49;16.70;;;4.20;;
23539;SDS011;11947;50.810;4.394;2023-04-25T00:53:21;23.45;;;5.10;;
23539;SDS011;11947;50.810;4.394;2023-04-25T00:55:48;18.00;;;4.53;;
23539;SDS011;11947;50.810;4.394;2023-04-25T00:58:16;20.00;;;4.90;;
23539;SDS011;11947;50.810;4.394;2023-04-25T01:00:46;15.90;;;4.60;;
23539;SDS011;11947;50.810;4.394;2023-04-25T01:03:13;22.67;;;4.38;;
23539;SDS011;11947;50.810;4.394;2023-04-25T01:05:42;20.88;;;4.60;;
23539;SDS011;11947;50.810;4.394;2023-04-25T01:08:08;19.77;;;4.93;;
23539;SDS011;11947;50.810;4.394;2023-04-25T01:10:35;16.63;;;5.00;;
23539;SDS011;11947;50.810;4.394;2023-04-25T01:13:01;18.00;;;4.43;;
23539;SDS011;11947;50.810;4.394;2023-04-25T01:15:27;27.23;;;5.53;;
23539;SDS011;11947;50.810;4.394;2023-04-25T01:17:53;17.83;;;4.88;;
23539;SDS011;11947;50.810;4.394;2023-04-25T01:20:21;18.98;;;5.22;;
23539;SDS011;11947;50.810;4.394;2023-04-25T01:22:48;22.98;;;5.65;;
23539;SDS011;11947;50.810;4.394;2023-04-25T01:25:14;19.27;;;5.22;;
23539;SDS011;11947;50.810;4.394;2023-04-25T01:27:40;27.75;;;5.18;;
23539;SDS011;11947;50.810;4.394;2023-04-25T01:30:06;18.70;;;4.97;;
23539;SDS011;11947;50.810;4.394;2023-04-25T01:32:32;22.67;;;5.18;;
23539;SDS011;11947;50.810;4.394;2023-04-25T01:35:05;29.02;;;5.07;;
23539;SDS011;11947;50.810;4.394;2023-04-25T01:37:35;20.00;;;4.97;;
23539;SDS011;11947;50.810;4.394;2023-04-25T01:40:08;20.23;;;4.63;;
23539;SDS011;11947;50.810;4.394;2023-04-25T01:42:36;30.17;;;4.78;;
23539;SDS011;11947;50.810;4.394;2023-04-25T01:45:05;24.67;;;5.95;;
23539;SDS011;11947;50.810;4.394;2023-04-25T01:47:31;27.95;;;5.38;;
23539;SDS011;11947;50.810;4.394;2023-04-25T01:49:57;19.70;;;5.03;;
23539;SDS011;11947;50.810;4.394;2023-04-25T01:52:22;23.33;;;5.05;;
23539;SDS011;11947;50.810;4.394;2023-04-25T01:54:48;22.90;;;5.20;;
23539;SDS011;11947;50.810;4.394;2023-04-25T01:57:15;21.10;;;4.63;;
23539;SDS011;11947;50.810;4.394;2023-04-25T01:59:43;22.52;;;5.10;;
23539;SDS011;11947;50.810;4.394;2023-04-25T02:02:08;22.42;;;5.03;;
23539;SDS011;11947;50.810;4.394;2023-04-25T02:04:34;24.17;;;4.80;;
23539;SDS011;11947;50.810;4.394;2023-04-25T02:07:00;22.10;;;5.25;;
23539;SDS011;11947;50.810;4.394;2023-04-25T02:09:26;19.73;;;5.38;;
23539;SDS011;11947;50.810;4.394;2023-04-25T02:11:52;23.65;;;5.30;;
23539;SDS011;11947;50.810;4.394;2023-04-25T02:14:17;27.05;;;5.40;;
23539;SDS011;11947;50.810;4.394;2023-04-25T02:16:43;20.25;;;4.75;;
23539;SDS011;11947;50.810;4.394;2023-04-25T02:19:09;21.02;;;4.88;;
23539;SDS011;11947;50.810;4.394;2023-04-25T02:21:35;23.00;;;5.03;;
23539;SDS011;11947;50.810;4.394;2023-04-25T02:24:02;24.83;;;4.93;;
23539;SDS011;11947;50.810;4.394;2023-04-25T02:26:28;23.42;;;5.50;;
23539;SDS011;11947;50.810;4.394;2023-04-25T02:28:55;27.63;;;5.22;;
23539;SDS011;11947;50.810;4.394;2023-04-25T02:31:21;33.85;;;5.68;;
23539;SDS011;11947;50.810;4.394;2023-04-25T02:33:47;22.58;;;5.57;;
23539;SDS011;11947;50.810;4.394;2023-04-25T02:36:13;20.00;;;4.75;;
23539;SDS011;11947;50.810;4.394;2023-04-25T02:38:39;21.70;;;4.80;;
23539;SDS011;11947;50.810;4.394;2023-04-25T02:41:05;21.73;;;5.30;;
23539;SDS011;11947;50.810;4.394;2023-04-25T02:43:31;15.45;;;4.95;;
23539;SDS011;11947;50.810;4.394;2023-04-25T02:45:57;27.23;;;5.15;;
23539;SDS011;11947;50.810;4.394;2023-04-25T02:48:22;25.13;;;5.30;;
23539;SDS011;11947;50.810;4.394;2023-04-25T02:50:48;24.00;;;5.18;;
23539;SDS011;11947;50.810;4.394;2023-04-25T02:53:14;22.88;;;5.07;;
23539;SDS011;11947;50.810;4.394;2023-04-25T02:55:40;18.42;;;5.25;;
23539;SDS011;11947;50.810;4.394;2023-04-25T02:58:05;21.38;;;5.28;;
23539;SDS011;11947;50.810;4.394;2023-04-25T03:00:31;27.67;;;6.35;;
23539;SDS011;11947;50.810;4.394;2023-04-25T03:02:57;26.63;;;5.53;;
23539;SDS011;11947;50.810;4.394;2023-04-25T03:05:22;28.48;;;6.13;;
23539;SDS011;11947;50.810;4.394;2023-04-25T03:07:48;25.83;;;6.40;;
23539;SDS011;11947;50.810;4.394;2023-04-25T03:10:14;42.95;;;6.85;;
23539;SDS011;11947;50.810;4.394;2023-04-25T03:12:39;24.77;;;5.72;;
23539;SDS011;11947;50.810;4.394;2023-04-25T03:15:05;20.35;;;5.72;;
23539;SDS011;11947;50.810;4.394;2023-04-25T03:17:31;21.60;;;5.35;;
23539;SDS011;11947;50.810;4.394;2023-04-25T03:19:57;26.25;;;5.85;;
23539;SDS011;11947;50.810;4.394;2023-04-25T03:22:22;26.05;;;5.47;;
23539;SDS011;11947;50.810;4.394;2023-04-25T03:24:49;25.00;;;5.72;;
23539;SDS011;11947;50.810;4.394;2023-04-25T03:27:15;27.80;;;5.72;;
23539;SDS011;11947;50.810;4.394;2023-04-25T03:29:41;21.38;;;4.85;;
23539;SDS011;11947;50.810;4.394;2023-04-25T03:32:06;19.15;;;4.95;;
23539;SDS011;11947;50.810;4.394;2023-04-25T03:34:32;21.63;;;5.18;;
23539;SDS011;11947;50.810;4.394;2023-04-25T03:36:57;31.27;;;5.07;;
23539;SDS011;11947;50.810;4.394;2023-04-25T03:39:23;22.15;;;5.18;;
23539;SDS011;11947;50.810;4.394;2023-04-25T03:41:49;24.20;;;4.97;;
23539;SDS011;11947;50.810;4.394;2023-04-25T03:44:14;29.10;;;5.63;;
23539;SDS011;11947;50.810;4.394;2023-04-25T03:46:40;22.25;;;5.20;;
23539;SDS011;11947;50.810;4.394;2023-04-25T03:49:05;26.13;;;5.97;;
23539;SDS011;11947;50.810;4.394;2023-04-25T03:51:31;28.50;;;5.53;;
23539;SDS011;11947;50.810;4.394;2023-04-25T03:53:57;25.90;;;5.00;;
23539;SDS011;11947;50.810;4.394;2023-04-25T03:56:23;17.83;;;4.93;;
23539;SDS011;11947;50.810;4.394;2023-04-25T03:58:48;21.83;;;5.07;;
23539;SDS011;11947;50.810;4.394;2023-04-25T04:01:14;19.55;;;5.40;;
23539;SDS011;11947;50.810;4.394;2023-04-25T04:03:40;28.38;;;5.75;;
23539;SDS011;11947;50.810;4.394;2023-04-25T04:06:06;21.77;;;5.68;;
23539;SDS011;11947;50.810;4.394;2023-04-25T04:08:33;25.00;;;4.95;;
23539;SDS011;11947;50.810;4.394;2023-04-25T04:10:59;20.60;;;4.70;;
23539;SDS011;11947;50.810;4.394;2023-04-25T04:13:25;23.75;;;5.40;;
23539;SDS011;11947;50.810;4.394;2023-04-25T04:15:52;21.90;;;4.97;;
23539;SDS011;11947;50.810;4.394;2023-04-25T04:18:17;23.02;;;4.97;;
23539;SDS011;11947;50.810;4.394;2023-04-25T04:20:43;23.30;;;5.25;;
23539;SDS011;11947;50.810;4.394;2023-04-25T04:23:09;22.85;;;5.32;;
23539;SDS011;11947;50.810;4.394;2023-04-25T04:25:35;26.58;;;6.10;;
23539;SDS011;11947;50.810;4.394;2023-04-25T04:28:01;23.77;;;5.53;;
23539;SDS011;11947;50.810;4.394;2023-04-25T04:30:27;22.20;;;5.50;;
23539;SDS011;11947;50.810;4.394;2023-04-25T04:32:56;20.40;;;6.30;;
23539;SDS011;11947;50.810;4.394;2023-04-25T04:35:22;19.25;;;6.22;;
23539;SDS011;11947;50.810;4.394;2023-04-25T04:37:49;16.00;;;5.82;;
23539;SDS011;11947;50.810;4.394;2023-04-25T04:40:15;28.23;;;5.30;;
23539;SDS011;11947;50.810;4.394;2023-04-25T04:42:42;20.90;;;5.25;;
23539;SDS011;11947;50.810;4.394;2023-04-25T04:45:10;19.63;;;5.95;;
23539;SDS011;11947;50.810;4.394;2023-04-25T04:47:36;26.55;;;6.15;;
23539;SDS011;11947;50.810;4.394;2023-04-25T04:50:02;24.73;;;6.15;;
23539;SDS011;11947;50.810;4.394;2023-04-25T04:52:29;24.38;;;6.55;;
23539;SDS011;11947;50.810;4.394;2023-04-25T04:54:55;23.17;;;5.80;;
23539;SDS011;11947;50.810;4.394;2023-04-25T04:57:21;17.95;;;6.05;;
23539;SDS011;11947;50.810;4.394;2023-04-25T04:59:46;25.10;;;6.38;;
23539;SDS011;11947;50.810;4.394;2023-04-25T05:02:12;22.02;;;6.20;;
23539;SDS011;11947;50.810;4.394;2023-04-25T05:04:38;28.70;;;6.18;;
23539;SDS011;11947;50.810;4.394;2023-04-25T05:07:03;21.60;;;6.40;;
23539;SDS011;11947;50.810;4.394;2023-04-25T05:09:29;20.67;;;6.03;;
23539;SDS011;11947;50.810;4.394;2023-04-25T05:11:55;26.55;;;6.68;;
23539;SDS011;11947;50.810;4.394;2023-04-25T05:14:20;26.42;;;6.68;;
23539;SDS011;11947;50.810;4.394;2023-04-25T05:16:47;21.58;;;6.95;;
23539;SDS011;11947;50.810;4.394;2023-04-25T05:19:13;20.25;;;5.78;;
23539;SDS011;11947;50.810;4.394;2023-04-25T05:21:39;29.20;;;5.97;;
23539;SDS011;11947;50.810;4.394;2023-04-25T05:24:04;19.52;;;5.78;;
23539;SDS011;11947;50.810;4.394;2023-04-25T05:26:30;18.92;;;6.03;;
23539;SDS011;11947;50.810;4.394;2023-04-25T05:28:59;24.75;;;6.30;;
23539;SDS011;11947;50.810;4.394;2023-04-25T05:31:25;19.60;;;5.78;;
23539;SDS011;11947;50.810;4.394;2023-04-25T05:33:51;29.60;;;5.82;;
23539;SDS011;11947;50.810;4.394;2023-04-25T05:36:18;22.75;;;6.45;;
23539;SDS011;11947;50.810;4.394;2023-04-25T05:38:44;22.05;;;7.25;;
23539;SDS011;11947;50.810;4.394;2023-04-25T05:41:10;28.67;;;7.00;;
23539;SDS011;11947;50.810;4.394;2023-04-25T05:43:36;13.98;;;4.43;;
23539;SDS011;11947;50.810;4.394;2023-04-25T05:46:02;16.50;;;4.80;;
23539;SDS011;11947;50.810;4.394;2023-04-25T05:48:27;18.98;;;4.47;;
23539;SDS011;11947;50.810;4.394;2023-04-25T05:50:53;20.33;;;4.68;;
23539;SDS011;11947;50.810;4.394;2023-04-25T05:53:19;14.80;;;4.90;;
23539;SDS011;11947;50.810;4.394;2023-04-25T05:55:46;12.80;;;4.35;;
23539;SDS011;11947;50.810;4.394;2023-04-25T05:58:11;17.42;;;4.82;;
23539;SDS011;11947;50.810;4.394;2023-04-25T06:00:37;22.00;;;5.00;;
23539;SDS011;11947;50.810;4.394;2023-04-25T06:03:03;12.73;;;4.43;;
23539;SDS011;11947;50.810;4.394;2023-04-25T06:05:29;20.45;;;5.47;;
23539;SDS011;11947;50.810;4.394;2023-04-25T06:07:55;20.15;;;4.50;;
23539;SDS011;11947;50.810;4.394;2023-04-25T06:10:21;20.23;;;5.20;;
23539;SDS011;11947;50.810;4.394;2023-04-25T06:12:47;18.80;;;4.22;;
23539;SDS011;11947;50.810;4.394;2023-04-25T06:15:13;13.25;;;4.90;;
23539;SDS011;11947;50.810;4.394;2023-04-25T06:17:39;31.48;;;5.10;;
23539;SDS011;11947;50.810;4.394;2023-04-25T06:20:05;26.90;;;5.50;;
23539;SDS011;11947;50.810;4.394;2023-04-25T06:22:31;20.83;;;5.35;;
23539;SDS011;11947;50.810;4.394;2023-04-25T06:24:56;21.85;;;5.35;;
23539;SDS011;11947;50.810;4.394;2023-04-25T06:27:24;15.40;;;4.78;;
23539;SDS011;11947;50.810;4.394;2023-04-25T06:29:50;23.02;;;6.15;;
23539;SDS011;11947;50.810;4.394;2023-04-25T06:32:15;22.73;;;6.82;;
23539;SDS011;11947;50.810;4.394;2023-04-25T06:34:42;19.38;;;5.93;;
23539;SDS011;11947;50.810;4.394;2023-04-25T06:37:08;18.35;;;5.82;;
23539;SDS011;11947;50.810;4.394;2023-04-25T06:39:34;17.90;;;5.88;;
23539;SDS011;11947;50.810;4.394;2023-04-25T06:42:00;22.55;;;6.25;;
23539;SDS011;11947;50.810;4.394;2023-04-25T06:44:25;18.17;;;6.25;;
23539;SDS011;11947;50.810;4.394;2023-04-25T06:46:53;20.42;;;6.80;;
23539;SDS011;11947;50.810;4.394;2023-04-25T06:49:19;20.70;;;6.35;;
23539;SDS011;11947;50.810;4.394;2023-04-25T06:51:45;24.17;;;6.15;;
23539;SDS011;11947;50.810;4.394;2023-04-25T06:54:10;21.40;;;5.97;;
23539;SDS011;11947;50.810;4.394;2023-04-25T06:56:36;27.88;;;6.45;;
23539;SDS011;11947;50.810;4.394;2023-04-25T06:59:02;28.20;;;6.10;;
23539;SDS011;11947;50.810;4.394;2023-04-25T07:01:27;20.55;;;5.28;;
23539;SDS011;11947;50.810;4.394;2023-04-25T07:03:53;16.33;;;4.72;;
23539;SDS011;11947;50.810;4.394;2023-04-25T07:06:18;18.48;;;4.97;;
23539;SDS011;11947;50.810;4.394;2023-04-25T07:08:44;17.67;;;4.45;;
23539;SDS011;11947;50.810;4.394;2023-04-25T07:11:10;21.23;;;4.40;;
23539;SDS011;11947;50.810;4.394;2023-04-25T07:13:35;19.20;;;4.65;;
23539;SDS011;11947;50.810;4.394;2023-04-25T07:16:01;16.48;;;4.35;;
23539;SDS011;11947;50.810;4.394;2023-04-25T07:18:28;11.98;;;4.60;;
23539;SDS011;11947;50.810;4.394;2023-04-25T07:20:53;18.65;;;4.97;;
23539;SDS011;11947;50.810;4.394;2023-04-25T07:23:19;14.23;;;3.67;;
23539;SDS011;11947;50.810;4.394;2023-04-25T07:25:45;13.00;;;3.88;;
23539;SDS011;11947;50.810;4.394;2023-04-25T07:28:11;12.85;;;3.70;;
23539;SDS011;11947;50.810;4.394;2023-04-25T07:30:37;19.63;;;3.78;;
23539;SDS011;11947;50.810;4.394;2023-04-25T07:33:03;23.95;;;3.70;;
23539;SDS011;11947;50.810;4.394;2023-04-25T07:35:29;13.65;;;3.47;;
23539;SDS011;11947;50.810;4.394;2023-04-25T07:37:55;15.68;;;3.38;;
23539;SDS011;11947;50.810;4.394;2023-04-25T07:40:20;15.50;;;3.15;;
23539;SDS011;11947;50.810;4.394;2023-04-25T07:42:46;14.23;;;3.15;;
23539;SDS011;11947;50.810;4.394;2023-04-25T07:45:12;10.75;;;2.97;;
23539;SDS011;11947;50.810;4.394;2023-04-25T07:47:37;20.88;;;4.65;;
23539;SDS011;11947;50.810;4.394;2023-04-25T07:50:03;9.80;;;2.97;;
23539;SDS011;11947;50.810;4.394;2023-04-25T07:52:29;16.38;;;4.00;;
23539;SDS011;11947;50.810;4.394;2023-04-25T07:54:55;15.68;;;3.05;;
23539;SDS011;11947;50.810;4.394;2023-04-25T07:57:21;13.32;;;2.63;;
23539;SDS011;11947;50.810;4.394;2023-04-25T07:59:46;15.65;;;3.17;;
23539;SDS011;11947;50.810;4.394;2023-04-25T08:02:12;19.13;;;3.47;;
23539;SDS011;11947;50.810;4.394;2023-04-25T08:04:38;11.60;;;2.95;;
23539;SDS011;11947;50.810;4.394;2023-04-25T08:07:03;17.08;;;3.63;;
23539;SDS011;11947;50.810;4.394;2023-04-25T08:09:29;9.38;;;3.13;;
23539;SDS011;11947;50.810;4.394;2023-04-25T08:11:59;15.15;;;2.95;;
23539;SDS011;11947;50.810;4.394;2023-04-25T08:14:25;11.93;;;3.17;;
23539;SDS011;11947;50.810;4.394;2023-04-25T08:16:51;12.15;;;3.25;;
23539;SDS011;11947;50.810;4.394;2023-04-25T08:19:17;9.88;;;2.58;;
23539;SDS011;11947;50.810;4.394;2023-04-25T08:21:42;11.82;;;2.88;;
23539;SDS011;11947;50.810;4.394;2023-04-25T08:24:08;14.75;;;3.13;;
23539;SDS011;11947;50.810;4.394;2023-04-25T08:26:33;12.82;;;3.35;;
23539;SDS011;11947;50.810;4.394;2023-04-25T08:28:59;11.90;;;2.50;;
23539;SDS011;11947;50.810;4.394;2023-04-25T08:31:25;15.18;;;3.00;;
23539;SDS011;11947;50.810;4.394;2023-04-25T08:33:51;15.38;;;3.38;;
23539;SDS011;11947;50.810;4.394;2023-04-25T08:36:16;15.35;;;2.92;;
23539;SDS011;11947;50.810;4.394;2023-04-25T08:38:43;12.50;;;3.20;;
23539;SDS011;11947;50.810;4.394;2023-04-25T08:41:09;15.10;;;3.72;;
23539;SDS011;11947;50.810;4.394;2023-04-25T08:43:36;14.00;;;3.35;;
23539;SDS011;11947;50.810;4.394;2023-04-25T08:46:04;13.18;;;2.75;;
23539;SDS011;11947;50.810;4.394;2023-04-25T08:48:32;12.50;;;3.60;;
23539;SDS011;11947;50.810;4.394;2023-04-25T08:50:58;10.48;;;2.70;;
23539;SDS011;11947;50.810;4.394;2023-04-25T08:53:28;11.90;;;3.05;;
23539;SDS011;11947;50.810;4.394;2023-04-25T08:55:55;6.78;;;2.40;;
23539;SDS011;11947;50.810;4.394;2023-04-25T08:58:23;11.48;;;3.10;;
23539;SDS011;11947;50.810;4.394;2023-04-25T09:00:49;14.40;;;2.90;;
23539;SDS011;11947;50.810;4.394;2023-04-25T09:03:16;10.68;;;2.65;;
23539;SDS011;11947;50.810;4.394;2023-04-25T09:05:42;12.73;;;3.00;;
23539;SDS011;11947;50.810;4.394;2023-04-25T09:08:09;17.38;;;3.22;;
23539;SDS011;11947;50.810;4.394;2023-04-25T09:10:35;9.27;;;2.95;;
23539;SDS011;11947;50.810;4.394;2023-04-25T09:15:47;8.95;;;2.70;;
23539;SDS011;11947;50.810;4.394;2023-04-25T09:18:13;10.18;;;2.50;;
23539;SDS011;11947;50.810;4.394;2023-04-25T09:20:42;11.88;;;2.70;;
23539;SDS011;11947;50.810;4.394;2023-04-25T09:23:08;13.25;;;2.97;;
23539;SDS011;11947;50.810;4.394;2023-04-25T09:25:35;11.10;;;2.80;;
23539;SDS011;11947;50.810;4.394;2023-04-25T09:28:04;10.65;;;3.13;;
23539;SDS011;11947;50.810;4.394;2023-04-25T09:30:32;11.35;;;2.55;;
23539;SDS011;11947;50.810;4.394;2023-04-25T09:33:09;9.68;;;2.67;;
23539;SDS011;11947;50.810;4.394;2023-04-25T09:35:39;10.68;;;2.60;;
23539;SDS011;11947;50.810;4.394;2023-04-25T09:38:10;11.30;;;2.10;;
23539;SDS011;11947;50.810;4.394;2023-04-25T09:40:41;7.22;;;2.20;;
23539;SDS011;11947;50.810;4.394;2023-04-25T09:43:23;8.88;;;2.13;;
23539;SDS011;11947;50.810;4.394;2023-04-25T09:45:54;14.95;;;2.40;;
23539;SDS011;11947;50.810;4.394;2023-04-25T09:48:24;8.65;;;2.10;;
23539;SDS011;11947;50.810;4.394;2023-04-25T09:53:36;10.25;;;2.45;;
23539;SDS011;11947;50.810;4.394;2023-04-25T09:56:04;12.45;;;2.60;;
23539;SDS011;11947;50.810;4.394;2023-04-25T09:58:32;6.95;;;2.00;;
23539;SDS011;11947;50.810;4.394;2023-04-25T10:01:00;7.13;;;2.40;;
23539;SDS011;11947;50.810;4.394;2023-04-25T10:03:38;9.05;;;2.28;;
23539;SDS011;11947;50.810;4.394;2023-04-25T10:06:07;9.70;;;2.33;;
23539;SDS011;11947;50.810;4.394;2023-04-25T10:08:44;5.70;;;2.17;;
23539;SDS011;11947;50.810;4.394;2023-04-25T10:11:10;6.93;;;2.50;;
23539;SDS011;11947;50.810;4.394;2023-04-25T10:13:39;11.68;;;2.35;;
23539;SDS011;11947;50.810;4.394;2023-04-25T10:16:06;9.95;;;2.53;;
23539;SDS011;11947;50.810;4.394;2023-04-25T10:18:32;8.38;;;2.28;;
23539;SDS011;11947;50.810;4.394;2023-04-25T10:20:59;5.63;;;2.08;;
23539;SDS011;11947;50.810;4.394;2023-04-25T10:23:29;9.55;;;2.33;;
23539;SDS011;11947;50.810;4.394;2023-04-25T10:25:56;7.07;;;2.25;;
23539;SDS011;11947;50.810;4.394;2023-04-25T10:28:23;7.40;;;1.85;;
23539;SDS011;11947;50.810;4.394;2023-04-25T10:30:59;7.78;;;2.00;;
23539;SDS011;11947;50.810;4.394;2023-04-25T10:33:44;4.30;;;1.50;;
23539;SDS011;11947;50.810;4.394;2023-04-25T10:38:36;7.05;;;1.80;;
23539;SDS011;11947;50.810;4.394;2023-04-25T10:41:03;3.88;;;1.40;;
23539;SDS011;11947;50.810;4.394;2023-04-25T10:43:34;6.43;;;1.98;;
23539;SDS011;11947;50.810;4.394;2023-04-25T10:46:23;3.95;;;1.70;;
23539;SDS011;11947;50.810;4.394;2023-04-25T10:48:57;5.85;;;1.60;;
23539;SDS011;11947;50.810;4.394;2023-04-25T10:51:25;5.35;;;1.45;;
23539;SDS011;11947;50.810;4.394;2023-04-25T10:56:29;5.50;;;2.03;;
23539;SDS011;11947;50.810;4.394;2023-04-25T10:59:16;3.90;;;1.60;;
23539;SDS011;11947;50.810;4.394;2023-04-25T11:01:44;18.90;;;2.60;;
23539;SDS011;11947;50.810;4.394;2023-04-25T11:09:30;6.40;;;1.70;;
23539;SDS011;11947;50.810;4.394;2023-04-25T11:11:57;5.30;;;2.08;;
23539;SDS011;11947;50.810;4.394;2023-04-25T11:14:24;6.55;;;1.60;;
23539;SDS011;11947;50.810;4.394;2023-04-25T11:16:54;6.40;;;1.65;;
23539;SDS011;11947;50.810;4.394;2023-04-25T11:19:23;10.02;;;2.22;;
23539;SDS011;11947;50.810;4.394;2023-04-25T11:21:50;7.10;;;2.10;;
23539;SDS011;11947;50.810;4.394;2023-04-25T11:24:19;9.07;;;2.05;;
23539;SDS011;11947;50.810;4.394;2023-04-25T11:26:50;10.98;;;2.25;;
23539;SDS011;11947;50.810;4.394;2023-04-25T11:29:16;7.72;;;1.60;;
23539;SDS011;11947;50.810;4.394;2023-04-25T11:31:45;7.45;;;1.90;;
23539;SDS011;11947;50.810;4.394;2023-04-25T11:34:10;7.18;;;1.98;;
23539;SDS011;11947;50.810;4.394;2023-04-25T11:36:36;6.57;;;1.67;;
23539;SDS011;11947;50.810;4.394;2023-04-25T11:39:03;6.22;;;1.67;;
23539;SDS011;11947;50.810;4.394;2023-04-25T11:41:30;5.75;;;1.85;;
23539;SDS011;11947;50.810;4.394;2023-04-25T11:43:56;5.47;;;1.55;;
23539;SDS011;11947;50.810;4.394;2023-04-25T11:46:22;5.40;;;1.80;;
23539;SDS011;11947;50.810;4.394;2023-04-25T11:48:48;7.07;;;1.88;;
23539;SDS011;11947;50.810;4.394;2023-04-25T11:51:15;6.43;;;1.60;;
23539;SDS011;11947;50.810;4.394;2023-04-25T11:53:41;8.32;;;1.85;;
23539;SDS011;11947;50.810;4.394;2023-04-25T11:56:09;6.60;;;1.55;;
23539;SDS011;11947;50.810;4.394;2023-04-25T11:58:54;2.97;;;1.15;;
23539;SDS011;11947;50.810;4.394;2023-04-25T12:01:31;4.45;;;1.60;;
23539;SDS011;11947;50.810;4.394;2023-04-25T12:03:58;6.43;;;1.55;;
23539;SDS011;11947;50.810;4.394;2023-04-25T12:06:30;4.93;;;1.60;;
23539;SDS011;11947;50.810;4.394;2023-04-25T12:08:59;5.78;;;1.50;;
23539;SDS011;11947;50.810;4.394;2023-04-25T12:11:32;6.93;;;1.65;;
23539;SDS011;11947;50.810;4.394;2023-04-25T12:14:05;4.35;;;1.50;;
23539;SDS011;11947;50.810;4.394;2023-04-25T12:16:41;7.97;;;1.40;;
23539;SDS011;11947;50.810;4.394;2023-04-25T12:19:07;4.18;;;1.38;;
23539;SDS011;11947;50.810;4.394;2023-04-25T12:21:32;5.53;;;1.52;;
23539;SDS011;11947;50.810;4.394;2023-04-25T12:26:53;2.92;;;1.13;;
23539;SDS011;11947;50.810;4.394;2023-04-25T12:29:30;6.30;;;1.90;;
23539;SDS011;11947;50.810;4.394;2023-04-25T12:31:57;6.38;;;1.90;;
23539;SDS011;11947;50.810;4.394;2023-04-25T12:34:24;3.97;;;1.50;;
23539;SDS011;11947;50.810;4.394;2023-04-25T12:36:50;3.22;;;1.45;;
23539;SDS011;11947;50.810;4.394;2023-04-25T12:39:17;4.47;;;1.20;;
23539;SDS011;11947;50.810;4.394;2023-04-25T12:41:48;5.00;;;1.33;;
23539;SDS011;11947;50.810;4.394;2023-04-25T12:44:14;4.47;;;1.27;;
23539;SDS011;11947;50.810;4.394;2023-04-25T12:46:40;4.25;;;1.38;;
23539;SDS011;11947;50.810;4.394;2023-04-25T12:49:06;3.70;;;1.30;;
23539;SDS011;11947;50.810;4.394;2023-04-25T12:51:33;5.80;;;1.20;;
23539;SDS011;11947;50.810;4.394;2023-04-25T12:53:59;5.95;;;1.40;;
23539;SDS011;11947;50.810;4.394;2023-04-25T12:56:26;7.18;;;1.52;;
23539;SDS011;11947;50.810;4.394;2023-04-25T12:58:52;3.28;;;1.63;;
23539;SDS011;11947;50.810;4.394;2023-04-25T13:01:19;5.20;;;1.20;;
23539;SDS011;11947;50.810;4.394;2023-04-25T13:03:45;2.25;;;1.10;;
23539;SDS011;11947;50.810;4.394;2023-04-25T13:06:11;3.47;;;1.40;;
23539;SDS011;11947;50.810;4.394;2023-04-25T13:08:38;6.53;;;1.38;;
23539;SDS011;11947;50.810;4.394;2023-04-25T13:11:04;5.55;;;1.55;;
23539;SDS011;11947;50.810;4.394;2023-04-25T13:13:30;4.18;;;1.73;;
23539;SDS011;11947;50.810;4.394;2023-04-25T13:15:56;7.18;;;1.52;;
23539;SDS011;11947;50.810;4.394;2023-04-25T13:18:22;9.05;;;1.55;;
23539;SDS011;11947;50.810;4.394;2023-04-25T13:20:52;8.15;;;1.77;;
23539;SDS011;11947;50.810;4.394;2023-04-25T13:23:18;8.95;;;1.70;;
23539;SDS011;11947;50.810;4.394;2023-04-25T13:25:45;6.65;;;1.80;;
23539;SDS011;11947;50.810;4.394;2023-04-25T13:28:11;7.85;;;1.67;;
23539;SDS011;11947;50.810;4.394;2023-04-25T13:30:37;7.78;;;1.77;;
23539;SDS011;11947;50.810;4.394;2023-04-25T13:33:05;4.22;;;1.40;;
23539;SDS011;11947;50.810;4.394;2023-04-25T13:35:31;4.32;;;1.33;;
23539;SDS011;11947;50.810;4.394;2023-04-25T13:37:59;4.32;;;1.60;;
23539;SDS011;11947;50.810;4.394;2023-04-25T13:40:25;8.48;;;1.42;;
23539;SDS011;11947;50.810;4.394;2023-04-25T13:42:51;4.15;;;1.52;;
23539;SDS011;11947;50.810;4.394;2023-04-25T13:45:18;5.35;;;1.50;;
23539;SDS011;11947;50.810;4.394;2023-04-25T13:47:44;2.60;;;1.25;;
23539;SDS011;11947;50.810;4.394;2023-04-25T13:50:10;3.83;;;1.25;;
23539;SDS011;11947;50.810;4.394;2023-04-25T13:52:36;3.55;;;1.30;;
23539;SDS011;11947;50.810;4.394;2023-04-25T13:55:01;3.97;;;1.35;;
23539;SDS011;11947;50.810;4.394;2023-04-25T13:57:28;3.55;;;1.52;;
23539;SDS011;11947;50.810;4.394;2023-04-25T13:59:56;4.63;;;1.35;;
23539;SDS011;11947;50.810;4.394;2023-04-25T14:02:21;6.40;;;1.70;;
23539;SDS011;11947;50.810;4.394;2023-04-25T14:04:47;11.13;;;2.10;;
23539;SDS011;11947;50.810;4.394;2023-04-25T14:07:13;7.13;;;1.55;;
23539;SDS011;11947;50.810;4.394;2023-04-25T14:09:42;4.72;;;1.50;;
23539;SDS011;11947;50.810;4.394;2023-04-25T14:12:08;6.63;;;1.60;;
23539;SDS011;11947;50.810;4.394;2023-04-25T14:14:34;4.30;;;1.60;;
23539;SDS011;11947;50.810;4.394;2023-04-25T14:17:00;4.82;;;1.50;;
23539;SDS011;11947;50.810;4.394;2023-04-25T14:19:26;2.35;;;1.23;;
23539;SDS011;11947;50.810;4.394;2023-04-25T14:21:52;3.38;;;1.42;;
23539;SDS011;11947;50.810;4.394;2023-04-25T14:24:18;3.00;;;1.33;;
23539;SDS011;11947;50.810;4.394;2023-04-25T14:26:43;7.30;;;1.45;;
23539;SDS011;11947;50.810;4.394;2023-04-25T14:29:09;4.80;;;1.52;;
23539;SDS011;11947;50.810;4.394;2023-04-25T14:31:36;7.32;;;1.67;;
23539;SDS011;11947;50.810;4.394;2023-04-25T14:34:03;4.07;;;1.25;;
23539;SDS011;11947;50.810;4.394;2023-04-25T14:36:30;4.93;;;1.55;;
23539;SDS011;11947;50.810;4.394;2023-04-25T14:38:57;3.70;;;1.40;;
23539;SDS011;11947;50.810;4.394;2023-04-25T14:41:23;6.57;;;1.38;;
23539;SDS011;11947;50.810;4.394;2023-04-25T14:43:49;6.50;;;1.50;;
23539;SDS011;11947;50.810;4.394;2023-04-25T14:46:15;3.35;;;1.10;;
23539;SDS011;11947;50.810;4.394;2023-04-25T14:48:41;3.67;;;1.40;;
23539;SDS011;11947;50.810;4.394;2023-04-25T14:51:07;3.78;;;1.40;;
23539;SDS011;11947;50.810;4.394;2023-04-25T14:53:32;4.95;;;1.40;;
23539;SDS011;11947;50.810;4.394;2023-04-25T14:55:58;4.80;;;1.40;;